createdAt,value
2023-04-09T00:00:38.375Z,28.35
2023-04-09T00:03:06.767Z,31.70
2023-04-09T00:05:38.968Z,31.60
2023-04-09T00:08:08.003Z,31.90
2023-04-09T00:10:36.187Z,37.13
2023-04-09T00:13:04.384Z,39.72
2023-04-09T00:15:32.745Z,42.28
2023-04-09T00:18:00.819Z,37.60
2023-04-09T00:20:29.162Z,39.03
2023-04-09T00:22:57.437Z,34.88
2023-04-09T00:25:25.640Z,35.90
2023-04-09T00:27:54.062Z,36.60
2023-04-09T00:30:23.539Z,35.22
2023-04-09T00:32:51.842Z,33.42
2023-04-09T00:35:20.223Z,37.75
2023-04-09T00:37:48.810Z,43.08
2023-04-09T00:40:17.977Z,38.40
2023-04-09T00:42:46.213Z,35.33
2023-04-09T00:45:14.759Z,34.88
2023-04-09T00:47:42.865Z,28.25
2023-04-09T00:50:11.347Z,29.80
2023-04-09T00:52:39.686Z,29.92
2023-04-09T00:55:08.574Z,29.33
2023-04-09T00:57:36.930Z,25.17
2023-04-09T01:00:05.850Z,30.67
2023-04-09T01:02:34.341Z,28.55
2023-04-09T01:05:02.845Z,30.27
2023-04-09T01:07:43.326Z,30.67
2023-04-09T01:10:24.882Z,27.83
2023-04-09T01:13:07.981Z,29.05
2023-04-09T01:15:43.462Z,25.60
2023-04-09T01:18:19.260Z,26.17
2023-04-09T01:21:10.944Z,26.73
2023-04-09T01:24:10.430Z,27.37
2023-04-09T01:27:18.114Z,29.27
2023-04-09T01:30:05.888Z,31.42
2023-04-09T01:32:37.710Z,36.53
2023-04-09T01:35:07.809Z,37.38
2023-04-09T01:37:36.538Z,27.92
2023-04-09T01:40:05.293Z,27.67
2023-04-09T01:42:34.302Z,30.42
2023-04-09T01:45:03.320Z,26.65
2023-04-09T01:47:32.370Z,24.63
2023-04-09T01:50:01.758Z,22.27
2023-04-09T01:52:30.227Z,22.13
2023-04-09T01:54:58.434Z,23.40
2023-04-09T01:57:26.601Z,31.67
2023-04-09T01:59:55.768Z,33.22
2023-04-09T02:02:37.632Z,29.38
2023-04-09T02:05:09.865Z,28.70
2023-04-09T02:10:10.455Z,22.40
2023-04-09T02:12:45.775Z,24.80
2023-04-09T02:15:14.344Z,24.40
2023-04-09T02:17:42.577Z,23.42
2023-04-09T02:20:11.252Z,24.85
2023-04-09T02:22:40.694Z,24.88
2023-04-09T02:25:09.174Z,25.38
2023-04-09T02:27:37.404Z,28.30
2023-04-09T02:30:06.421Z,29.80
2023-04-09T02:32:34.578Z,29.02
2023-04-09T02:35:03.032Z,27.73
2023-04-09T02:37:31.254Z,27.42
2023-04-09T02:39:59.585Z,28.17
2023-04-09T02:42:27.621Z,27.42
2023-04-09T02:44:55.816Z,26.63
2023-04-09T02:47:25.958Z,23.75
2023-04-09T02:49:54.783Z,25.90
2023-04-09T02:52:23.337Z,25.45
2023-04-09T02:54:51.880Z,26.77
2023-04-09T02:57:20.407Z,28.15
2023-04-09T02:59:48.570Z,29.05
2023-04-09T03:02:16.820Z,32.08
2023-04-09T03:04:45.108Z,27.30
2023-04-09T03:07:13.283Z,30.85
2023-04-09T03:09:41.600Z,27.40
2023-04-09T03:12:09.687Z,27.95
2023-04-09T03:14:37.922Z,25.63
2023-04-09T03:17:06.255Z,25.75
2023-04-09T03:19:34.437Z,26.00
2023-04-09T03:22:02.757Z,29.23
2023-04-09T03:24:35.225Z,32.85
2023-04-09T03:27:06.684Z,34.45
2023-04-09T03:29:35.327Z,32.58
2023-04-09T03:32:03.761Z,31.23
2023-04-09T03:34:31.935Z,30.90
2023-04-09T03:37:00.440Z,31.95
2023-04-09T03:39:31.918Z,30.75
2023-04-09T03:42:00.105Z,27.73
2023-04-09T03:44:33.118Z,26.10
2023-04-09T03:47:10.986Z,24.90
2023-04-09T03:49:40.383Z,27.00
2023-04-09T03:52:17.123Z,26.15
2023-04-09T03:54:49.238Z,26.48
2023-04-09T03:57:22.744Z,26.20
2023-04-09T03:59:53.872Z,28.08
2023-04-09T04:02:24.028Z,26.52
2023-04-09T04:05:00.853Z,24.08
2023-04-09T04:07:33.885Z,24.58
2023-04-09T04:10:08.853Z,22.75
2023-04-09T04:12:37.775Z,23.25
2023-04-09T04:15:10.323Z,24.35
2023-04-09T04:17:44.723Z,24.98
2023-04-09T04:20:34.411Z,24.95
2023-04-09T04:23:08.315Z,24.73
2023-04-09T04:25:44.818Z,23.60
2023-04-09T04:28:17.600Z,25.88
2023-04-09T04:30:45.955Z,26.08
2023-04-09T04:33:14.522Z,27.42
2023-04-09T04:35:48.740Z,28.80
2023-04-09T04:38:33.268Z,25.02
2023-04-09T04:41:04.959Z,25.73
2023-04-09T04:43:36.501Z,25.83
2023-04-09T04:46:05.165Z,26.63
2023-04-09T04:48:34.293Z,23.52
2023-04-09T04:51:03.151Z,23.85
2023-04-09T04:53:40.061Z,21.85
2023-04-09T04:56:16.294Z,22.05
2023-04-09T04:58:57.755Z,22.33
2023-04-09T05:01:26.113Z,21.60
2023-04-09T05:03:55.521Z,22.27
2023-04-09T05:06:31.745Z,21.58
2023-04-09T05:09:02.042Z,21.65
2023-04-09T05:11:38.650Z,21.08
2023-04-09T05:14:13.356Z,21.65
2023-04-09T05:16:41.853Z,19.05
2023-04-09T05:19:10.189Z,20.55
2023-04-09T05:21:39.348Z,19.95
2023-04-09T05:24:07.768Z,19.95
2023-04-09T05:26:36.014Z,19.35
2023-04-09T05:29:04.391Z,18.05
2023-04-09T05:31:33.510Z,18.30
2023-04-09T05:34:06.909Z,16.75
2023-04-09T05:36:39.963Z,17.25
2023-04-09T05:39:08.293Z,16.77
2023-04-09T05:41:36.534Z,16.58
2023-04-09T05:44:20.000Z,16.58
2023-04-09T05:46:49.286Z,15.63
2023-04-09T05:49:22.065Z,16.50
2023-04-09T05:51:53.985Z,15.55
2023-04-09T05:54:27.266Z,15.73
2023-04-09T05:56:55.663Z,15.05
2023-04-09T05:59:24.473Z,16.13
2023-04-09T06:01:52.628Z,15.77
2023-04-09T06:04:21.212Z,15.68
2023-04-09T06:06:49.433Z,15.40
2023-04-09T06:09:17.758Z,16.17
2023-04-09T06:11:45.971Z,16.40
2023-04-09T06:14:14.274Z,15.48
2023-04-09T06:16:42.360Z,15.82
2023-04-09T06:19:10.540Z,16.25
2023-04-09T06:21:38.871Z,16.58
2023-04-09T06:24:07.345Z,15.85
2023-04-09T06:26:35.686Z,15.65
2023-04-09T06:29:03.833Z,15.88
2023-04-09T06:31:32.281Z,15.75
2023-04-09T06:34:02.698Z,15.18
2023-04-09T06:36:30.992Z,16.02
2023-04-09T06:38:59.343Z,15.88
2023-04-09T06:41:27.618Z,16.77
2023-04-09T06:43:55.970Z,16.25
2023-04-09T06:46:24.201Z,16.90
2023-04-09T06:48:52.497Z,17.45
2023-04-09T06:51:20.776Z,18.10
2023-04-09T06:53:49.236Z,17.15
2023-04-09T06:56:17.315Z,16.75
2023-04-09T06:58:45.548Z,15.63
2023-04-09T07:01:13.921Z,16.15
2023-04-09T07:03:42.256Z,18.13
2023-04-09T07:06:10.662Z,17.58
2023-04-09T07:08:38.841Z,16.55
2023-04-09T07:11:07.268Z,17.58
2023-04-09T07:13:35.687Z,17.88
2023-04-09T07:16:03.866Z,18.23
2023-04-09T07:18:32.246Z,18.65
2023-04-09T07:21:00.524Z,18.23
2023-04-09T07:23:28.842Z,18.20
2023-04-09T07:25:56.942Z,18.08
2023-04-09T07:28:25.260Z,20.90
2023-04-09T07:30:53.714Z,19.90
2023-04-09T07:33:22.141Z,19.17
2023-04-09T07:35:50.215Z,20.65
2023-04-09T07:38:18.381Z,18.80
2023-04-09T07:40:46.768Z,20.30
2023-04-09T07:43:14.952Z,16.80
2023-04-09T07:45:43.156Z,21.25
2023-04-09T07:48:11.374Z,17.90
2023-04-09T07:50:39.703Z,18.35
2023-04-09T07:53:07.871Z,18.40
2023-04-09T07:55:36.076Z,20.45
2023-04-09T07:58:04.335Z,19.73
2023-04-09T08:00:32.515Z,19.30
2023-04-09T08:03:00.908Z,19.83
2023-04-09T08:05:29.232Z,19.25
2023-04-09T08:07:57.542Z,18.48
2023-04-09T08:10:25.649Z,18.42
2023-04-09T08:12:53.858Z,19.75
2023-04-09T08:15:22.152Z,19.95
2023-04-09T08:17:50.392Z,20.63
2023-04-09T08:20:18.674Z,18.67
2023-04-09T08:22:46.829Z,20.05
2023-04-09T08:25:15.196Z,20.92
2023-04-09T08:27:43.464Z,20.33
2023-04-09T08:30:12.353Z,21.08
2023-04-09T08:32:40.615Z,20.77
2023-04-09T08:35:09.322Z,19.45
2023-04-09T08:37:37.708Z,19.85
2023-04-09T08:40:06.308Z,18.35
2023-04-09T08:42:36.798Z,20.85
2023-04-09T08:45:05.849Z,23.02
2023-04-09T08:47:37.111Z,22.60
2023-04-09T08:50:06.019Z,20.42
2023-04-09T08:52:35.422Z,21.23
2023-04-09T08:55:03.901Z,19.92
2023-04-09T08:57:40.674Z,20.42
2023-04-09T09:00:09.778Z,22.70
2023-04-09T09:02:37.980Z,19.95
2023-04-09T09:05:06.746Z,19.90
2023-04-09T09:07:35.104Z,20.73
2023-04-09T09:10:03.595Z,18.80
2023-04-09T09:12:42.759Z,20.63
2023-04-09T09:15:28.906Z,22.27
2023-04-09T09:17:59.633Z,21.20
2023-04-09T09:20:28.299Z,19.50
2023-04-09T09:22:57.419Z,17.83
2023-04-09T09:25:26.616Z,16.67
2023-04-09T09:27:55.919Z,17.95
2023-04-09T09:30:25.243Z,18.38
2023-04-09T09:33:12.449Z,20.35
2023-04-09T09:35:56.194Z,20.20
2023-04-09T09:38:24.639Z,20.30
2023-04-09T09:40:52.962Z,19.63
2023-04-09T09:43:21.060Z,20.25
2023-04-09T09:45:49.966Z,18.85
2023-04-09T09:48:18.155Z,18.52
2023-04-09T09:50:49.120Z,20.33
2023-04-09T09:53:23.097Z,17.65
2023-04-09T09:55:54.521Z,19.40
2023-04-09T09:58:49.913Z,17.75
2023-04-09T10:01:22.545Z,18.30
2023-04-09T10:03:53.252Z,17.98
2023-04-09T10:06:22.128Z,18.30
2023-04-09T10:08:51.252Z,18.77
2023-04-09T10:11:20.917Z,20.38
2023-04-09T10:13:54.651Z,18.60
2023-04-09T10:16:23.816Z,19.27
2023-04-09T10:18:52.436Z,20.15
2023-04-09T10:21:33.120Z,19.00
2023-04-09T10:24:01.897Z,21.20
2023-04-09T10:26:30.202Z,21.83
2023-04-09T10:29:13.044Z,19.73
2023-04-09T10:32:20.717Z,22.25
2023-04-09T10:34:51.770Z,21.30
2023-04-09T10:37:25.404Z,21.92
2023-04-09T10:39:54.941Z,23.45
2023-04-09T10:42:33.831Z,25.63
2023-04-09T10:45:12.777Z,26.10
2023-04-09T10:47:43.489Z,23.23
2023-04-09T10:50:26.081Z,26.27
2023-04-09T10:52:56.094Z,23.58
2023-04-09T10:55:43.007Z,22.50
2023-04-09T10:58:13.687Z,20.92
2023-04-09T11:00:46.953Z,19.42
2023-04-09T11:03:23.606Z,17.83
2023-04-09T11:05:53.397Z,20.50
2023-04-09T11:08:21.914Z,21.25
2023-04-09T11:10:52.239Z,21.10
2023-04-09T11:13:20.779Z,22.30
2023-04-09T11:15:48.978Z,17.92
2023-04-09T11:18:28.366Z,21.20
2023-04-09T11:21:01.439Z,24.60
2023-04-09T11:23:30.132Z,33.53
2023-04-09T11:25:58.376Z,19.58
2023-04-09T11:28:27.395Z,22.75
2023-04-09T11:30:55.710Z,21.08
2023-04-09T11:33:23.966Z,21.02
2023-04-09T11:35:52.409Z,18.92
2023-04-09T11:38:20.690Z,17.77
2023-04-09T11:40:50.963Z,17.38
2023-04-09T11:45:49.713Z,18.13
2023-04-09T11:48:19.127Z,18.50
2023-04-09T11:50:48.504Z,18.85
2023-04-09T11:53:21.617Z,17.33
2023-04-09T11:55:53.889Z,16.15
2023-04-09T11:58:26.923Z,15.50
2023-04-09T12:00:56.171Z,17.90
2023-04-09T12:03:32.151Z,17.73
2023-04-09T12:06:05.798Z,19.02
2023-04-09T12:08:37.821Z,16.23
2023-04-09T12:13:37.740Z,16.47
2023-04-09T12:16:06.661Z,17.67
2023-04-09T12:18:37.292Z,16.50
2023-04-09T12:21:05.903Z,18.50
2023-04-09T12:23:34.171Z,16.55
2023-04-09T12:26:02.618Z,17.45
2023-04-09T12:28:31.306Z,16.45
2023-04-09T12:30:59.800Z,17.02
2023-04-09T12:33:28.106Z,15.77
2023-04-09T12:35:56.341Z,16.67
2023-04-09T12:38:24.730Z,14.88
2023-04-09T12:40:52.814Z,17.60
2023-04-09T12:43:21.108Z,15.38
2023-04-09T12:45:49.333Z,18.67
2023-04-09T12:48:17.650Z,17.08
2023-04-09T12:50:45.925Z,16.13
2023-04-09T12:53:14.162Z,15.95
2023-04-09T12:55:43.000Z,17.50
2023-04-09T12:58:11.320Z,16.05
2023-04-09T13:00:39.433Z,18.85
2023-04-09T13:03:07.767Z,15.68
2023-04-09T13:05:36.047Z,15.73
2023-04-09T13:08:04.512Z,22.30
2023-04-09T13:10:32.756Z,16.45
2023-04-09T13:13:01.024Z,22.48
2023-04-09T13:15:29.631Z,24.38
2023-04-09T13:17:57.804Z,15.82
2023-04-09T13:20:26.245Z,15.88
2023-04-09T13:22:54.413Z,15.18
2023-04-09T13:25:22.715Z,15.98
2023-04-09T13:27:50.866Z,16.48
2023-04-09T13:30:19.200Z,15.13
2023-04-09T13:32:47.588Z,17.42
2023-04-09T13:35:16.176Z,15.30
2023-04-09T13:37:44.332Z,15.20
2023-04-09T13:40:13.038Z,16.42
2023-04-09T13:42:41.198Z,15.10
2023-04-09T13:45:09.708Z,16.02
2023-04-09T13:47:38.021Z,15.68
2023-04-09T13:50:06.974Z,15.82
2023-04-09T13:52:35.176Z,16.52
2023-04-09T13:55:03.637Z,16.05
2023-04-09T13:57:31.828Z,16.38
2023-04-09T14:00:00.083Z,13.35
2023-04-09T14:02:28.624Z,13.63
2023-04-09T14:04:57.363Z,14.15
2023-04-09T14:07:25.675Z,15.98
2023-04-09T14:09:53.899Z,14.07
2023-04-09T14:12:22.108Z,15.95
2023-04-09T14:14:50.614Z,14.52
2023-04-09T14:17:18.707Z,17.10
2023-04-09T14:19:47.126Z,15.15
2023-04-09T14:22:15.381Z,16.30
2023-04-09T14:24:43.667Z,25.98
2023-04-09T14:27:11.773Z,14.82
2023-04-09T14:29:39.974Z,18.55
2023-04-09T14:32:08.244Z,15.07
2023-04-09T14:34:36.463Z,16.52
2023-04-09T14:37:04.812Z,19.42
2023-04-09T14:39:32.878Z,17.75
2023-04-09T14:42:01.151Z,16.35
2023-04-09T14:44:29.394Z,15.70
2023-04-09T14:46:57.690Z,17.38
2023-04-09T14:49:25.917Z,15.85
2023-04-09T14:51:54.312Z,17.27
2023-04-09T14:54:22.605Z,15.88
2023-04-09T14:56:50.778Z,16.10
2023-04-09T14:59:18.923Z,17.20
2023-04-09T15:01:47.159Z,17.83
2023-04-09T15:04:15.524Z,17.80
2023-04-09T15:06:44.100Z,15.50
2023-04-09T15:09:12.239Z,19.23
2023-04-09T15:11:41.326Z,18.55
2023-04-09T15:14:09.510Z,16.90
2023-04-09T15:16:38.060Z,17.20
2023-04-09T15:19:06.207Z,17.10
2023-04-09T15:21:34.412Z,18.42
2023-04-09T15:24:02.726Z,16.65
2023-04-09T15:26:31.572Z,17.73
2023-04-09T15:29:03.829Z,17.48
2023-04-09T15:31:33.315Z,19.10
2023-04-09T15:34:01.741Z,18.15
2023-04-09T15:36:30.065Z,22.23
2023-04-09T15:38:58.596Z,26.90
2023-04-09T15:41:26.901Z,18.98
2023-04-09T15:43:55.066Z,25.15
2023-04-09T15:46:23.419Z,24.98
2023-04-09T15:48:51.757Z,20.25
2023-04-09T15:51:21.698Z,26.15
2023-04-09T15:53:49.806Z,21.77
2023-04-09T15:56:18.094Z,24.85
2023-04-09T15:58:46.643Z,43.30
2023-04-09T16:01:14.928Z,29.27
2023-04-09T16:03:43.286Z,37.25
2023-04-09T16:06:12.478Z,25.40
2023-04-09T16:08:40.894Z,18.27
2023-04-09T16:11:09.158Z,38.03
2023-04-09T16:13:37.706Z,21.92
2023-04-09T16:16:06.464Z,20.38
2023-04-09T16:18:35.093Z,18.48
2023-04-09T16:21:03.412Z,17.83
2023-04-09T16:23:31.762Z,21.73
2023-04-09T16:25:59.913Z,21.20
2023-04-09T16:28:28.228Z,17.02
2023-04-09T16:30:56.464Z,18.50
2023-04-09T16:33:24.597Z,19.92
2023-04-09T16:35:52.890Z,33.13
2023-04-09T16:38:21.077Z,24.38
2023-04-09T16:40:49.457Z,18.77
2023-04-09T16:43:17.597Z,19.60
2023-04-09T16:45:45.746Z,23.48
2023-04-09T16:48:14.175Z,30.88
2023-04-09T16:50:42.391Z,22.15
2023-04-09T16:53:10.816Z,21.13
2023-04-09T16:55:38.986Z,20.92
2023-04-09T16:58:07.086Z,18.10
2023-04-09T17:00:35.424Z,19.73
2023-04-09T17:03:04.483Z,18.83
2023-04-09T17:05:32.733Z,22.00
2023-04-09T17:08:01.152Z,22.10
2023-04-09T17:10:29.392Z,22.58
2023-04-09T17:12:57.558Z,18.05
2023-04-09T17:15:25.918Z,19.23
2023-04-09T17:17:54.496Z,17.15
2023-04-09T17:20:22.694Z,16.55
2023-04-09T17:22:50.973Z,18.60
2023-04-09T17:25:19.478Z,17.95
2023-04-09T17:27:47.574Z,16.48
2023-04-09T17:30:16.021Z,14.70
2023-04-09T17:32:44.270Z,14.85
2023-04-09T17:35:12.347Z,17.05
2023-04-09T17:37:40.729Z,16.02
2023-04-09T17:40:09.710Z,17.98
2023-04-09T17:42:37.897Z,16.50
2023-04-09T17:45:06.599Z,17.27
2023-04-09T17:47:35.007Z,36.55
2023-04-09T17:50:03.574Z,20.38
2023-04-09T17:52:31.953Z,21.20
2023-04-09T17:55:00.257Z,31.50
2023-04-09T17:57:31.131Z,27.45
2023-04-09T17:59:59.344Z,22.80
2023-04-09T18:02:27.754Z,21.50
2023-04-09T18:04:56.216Z,17.33
2023-04-09T18:07:24.579Z,20.70
2023-04-09T18:09:52.908Z,18.85
2023-04-09T18:12:21.166Z,20.15
2023-04-09T18:14:49.408Z,116.65
2023-04-09T18:17:18.401Z,118.50
2023-04-09T18:19:47.752Z,42.35
2023-04-09T18:22:15.871Z,42.45
2023-04-09T18:24:44.088Z,39.65
2023-04-09T18:27:12.267Z,44.40
2023-04-09T18:29:40.547Z,33.83
2023-04-09T18:32:08.616Z,45.20
2023-04-09T18:34:36.818Z,52.40
2023-04-09T18:37:05.170Z,81.95
2023-04-09T18:39:35.073Z,84.78
2023-04-09T18:42:03.343Z,53.70
2023-04-09T18:44:31.425Z,38.30
2023-04-09T18:47:00.003Z,32.13
2023-04-09T18:49:28.353Z,32.15
2023-04-09T18:51:56.747Z,28.45
2023-04-09T18:54:25.425Z,29.75
2023-04-09T18:56:53.643Z,27.40
2023-04-09T18:59:21.902Z,30.90
2023-04-09T19:01:50.115Z,31.38
2023-04-09T19:04:18.368Z,30.27
2023-04-09T19:06:46.641Z,30.23
2023-04-09T19:09:14.816Z,32.05
2023-04-09T19:11:43.378Z,37.72
2023-04-09T19:14:11.408Z,35.53
2023-04-09T19:16:39.850Z,36.25
2023-04-09T19:19:08.155Z,34.65
2023-04-09T19:21:36.486Z,33.85
2023-04-09T19:24:06.113Z,35.30
2023-04-09T19:26:34.531Z,34.78
2023-04-09T19:29:02.827Z,37.63
2023-04-09T19:31:31.438Z,40.30
2023-04-09T19:33:59.739Z,51.85
2023-04-09T19:36:27.907Z,63.35
2023-04-09T19:38:56.216Z,55.17
2023-04-09T19:41:25.472Z,50.97
2023-04-09T19:43:53.592Z,48.30
2023-04-09T19:46:22.014Z,51.53
2023-04-09T19:48:50.262Z,52.42
2023-04-09T19:51:21.566Z,55.38
2023-04-09T19:53:49.799Z,56.40
2023-04-09T19:56:17.950Z,54.33
2023-04-09T19:58:46.191Z,58.17
2023-04-09T20:01:14.456Z,55.97
2023-04-09T20:03:42.761Z,56.30
2023-04-09T20:06:11.286Z,62.45
2023-04-09T20:08:39.489Z,58.75
2023-04-09T20:11:07.786Z,58.08
2023-04-09T20:13:35.984Z,61.90
2023-04-09T20:16:04.347Z,66.53
2023-04-09T20:18:32.602Z,87.70
2023-04-09T20:21:00.778Z,109.07
2023-04-09T20:23:28.941Z,65.93
2023-04-09T20:25:57.143Z,51.40
2023-04-09T20:28:25.441Z,45.83
2023-04-09T20:30:53.521Z,40.03
2023-04-09T20:33:21.777Z,41.15
2023-04-09T20:35:49.963Z,39.65
2023-04-09T20:38:18.062Z,40.25
2023-04-09T20:40:46.469Z,37.30
2023-04-09T20:43:14.771Z,33.25
2023-04-09T20:45:42.930Z,32.05
2023-04-09T20:48:11.256Z,29.83
2023-04-09T20:50:39.664Z,28.98
2023-04-09T20:53:09.795Z,29.45
2023-04-09T20:55:38.133Z,30.08
2023-04-09T20:58:06.837Z,31.85
2023-04-09T21:00:35.148Z,33.45
2023-04-09T21:03:03.486Z,32.05
2023-04-09T21:05:31.961Z,31.15
2023-04-09T21:08:00.128Z,35.40
2023-04-09T21:10:28.579Z,32.00
2023-04-09T21:12:56.846Z,29.65
2023-04-09T21:15:25.127Z,28.25
2023-04-09T21:17:53.396Z,25.83
2023-04-09T21:20:21.627Z,23.13
2023-04-09T21:22:49.881Z,22.83
2023-04-09T21:25:18.158Z,21.98
2023-04-09T21:27:46.316Z,19.77
2023-04-09T21:30:14.586Z,19.42
2023-04-09T21:32:42.816Z,20.55
2023-04-09T21:35:11.233Z,20.45
2023-04-09T21:37:39.359Z,23.27
2023-04-09T21:40:08.318Z,25.30
2023-04-09T21:42:36.630Z,24.30
2023-04-09T21:45:05.311Z,20.92
2023-04-09T21:47:33.608Z,20.67
2023-04-09T21:50:02.082Z,20.55
2023-04-09T21:52:30.435Z,20.38
2023-04-09T21:55:00.362Z,20.17
2023-04-09T21:57:28.767Z,19.27
2023-04-09T21:59:57.072Z,18.92
2023-04-09T22:02:25.402Z,20.00
2023-04-09T22:04:53.860Z,21.02
2023-04-09T22:07:23.654Z,22.10
2023-04-09T22:09:55.138Z,25.17
2023-04-09T22:12:23.670Z,26.33
2023-04-09T22:14:51.802Z,26.42
2023-04-09T22:17:20.233Z,23.75
2023-04-09T22:19:48.518Z,25.58
2023-04-09T22:22:17.063Z,22.58
2023-04-09T22:24:45.368Z,23.20
2023-04-09T22:27:13.665Z,22.55
2023-04-09T22:29:42.003Z,22.23
2023-04-09T22:32:10.652Z,21.48
2023-04-09T22:34:38.959Z,21.20
2023-04-09T22:37:07.236Z,19.48
2023-04-09T22:39:35.558Z,20.33
2023-04-09T22:42:04.044Z,21.30
2023-04-09T22:44:32.226Z,19.20
2023-04-09T22:47:00.679Z,19.85
2023-04-09T22:49:29.201Z,20.63
2023-04-09T22:51:57.756Z,21.52
2023-04-09T22:54:25.901Z,21.42
2023-04-09T22:56:54.184Z,20.60
2023-04-09T22:59:25.121Z,19.27
2023-04-09T23:01:58.821Z,19.40
2023-04-09T23:04:27.238Z,20.88
2023-04-09T23:06:55.587Z,21.13
2023-04-09T23:09:24.038Z,20.17
2023-04-09T23:11:52.381Z,21.52
2023-04-09T23:14:20.500Z,22.83
2023-04-09T23:16:48.809Z,26.33
2023-04-09T23:19:17.020Z,26.48
2023-04-09T23:21:45.474Z,27.42
2023-04-09T23:24:13.588Z,30.85
2023-04-09T23:26:41.967Z,30.08
2023-04-09T23:29:10.196Z,25.70
2023-04-09T23:31:38.499Z,25.73
2023-04-09T23:34:06.726Z,23.70
2023-04-09T23:36:34.885Z,23.17
2023-04-09T23:39:03.135Z,22.42
2023-04-09T23:41:31.348Z,21.63
2023-04-09T23:43:59.485Z,20.00
2023-04-09T23:46:27.672Z,19.52
2023-04-09T23:48:55.903Z,19.90
2023-04-09T23:51:24.343Z,21.48
2023-04-09T23:53:52.603Z,19.40
2023-04-09T23:56:21.109Z,21.58
2023-04-09T23:58:49.377Z,20.38
